createdAt,value
2022-11-12T00:00:22.556Z,46.20
2022-11-12T00:03:16.198Z,46.30
2022-11-12T00:06:08.758Z,46.30
2022-11-12T00:09:01.076Z,46.30
2022-11-12T00:11:53.869Z,46.30
2022-11-12T00:14:46.624Z,46.30
2022-11-12T00:17:38.946Z,46.30
2022-11-12T00:20:32.765Z,46.30
2022-11-12T00:23:25.186Z,46.30
2022-11-12T00:26:17.681Z,46.30
2022-11-12T00:29:10.241Z,46.30
2022-11-12T00:32:02.679Z,46.30
2022-11-12T00:34:55.000Z,46.30
2022-11-12T00:37:48.814Z,46.30
2022-11-12T00:40:42.342Z,46.30
2022-11-12T00:43:34.659Z,46.30
2022-11-12T00:46:27.195Z,46.30
2022-11-12T00:49:19.718Z,46.30
2022-11-12T00:52:12.044Z,46.30
2022-11-12T00:55:06.260Z,46.20
2022-11-12T00:58:00.430Z,46.20
2022-11-12T01:00:53.097Z,46.30
2022-11-12T01:03:46.070Z,46.30
2022-11-12T01:06:41.672Z,46.20
2022-11-12T01:09:34.096Z,46.30
2022-11-12T01:12:28.234Z,46.20
2022-11-12T01:15:21.014Z,46.30
2022-11-12T01:18:13.400Z,46.40
2022-11-12T01:21:07.505Z,46.30
2022-11-12T01:24:01.497Z,46.30
2022-11-12T01:26:53.959Z,46.30
2022-11-12T01:29:47.785Z,46.30
2022-11-12T01:32:40.600Z,46.20
2022-11-12T01:35:33.077Z,46.20
2022-11-12T01:38:25.560Z,46.30
2022-11-12T01:41:20.249Z,46.20
2022-11-12T01:44:18.388Z,46.20
2022-11-12T01:47:16.353Z,46.30
2022-11-12T01:50:18.424Z,46.30
2022-11-12T01:53:12.849Z,46.50
2022-11-12T01:56:07.133Z,46.30
2022-11-12T01:59:03.794Z,46.30
2022-11-12T02:01:56.073Z,46.40
2022-11-12T02:04:51.965Z,46.30
2022-11-12T02:07:47.523Z,46.20
2022-11-12T02:10:41.231Z,46.30
2022-11-12T02:13:51.203Z,46.30
2022-11-12T02:16:46.409Z,46.20
2022-11-12T02:19:39.211Z,46.20
2022-11-12T02:22:33.192Z,46.20
2022-11-12T02:25:27.026Z,46.20
2022-11-12T02:28:19.672Z,46.30
2022-11-12T02:31:12.159Z,46.30
2022-11-12T02:34:05.062Z,46.20
2022-11-12T02:36:57.515Z,46.30
2022-11-12T02:39:51.004Z,46.20
2022-11-12T02:42:43.517Z,46.20
2022-11-12T02:45:36.013Z,46.20
2022-11-12T02:48:28.783Z,46.70
2022-11-12T02:51:21.250Z,46.20
2022-11-12T02:54:13.346Z,46.20
2022-11-12T02:57:07.241Z,46.10
2022-11-12T02:59:59.872Z,46.10
2022-11-12T03:02:59.260Z,46.10
2022-11-12T03:05:58.115Z,46.10
2022-11-12T03:08:50.438Z,46.20
2022-11-12T03:11:42.940Z,46.00
2022-11-12T03:14:37.062Z,46.00
2022-11-12T03:17:29.739Z,46.00
2022-11-12T03:20:22.317Z,46.00
2022-11-12T03:23:14.559Z,46.10
2022-11-12T03:26:06.956Z,46.00
2022-11-12T03:28:59.196Z,46.00
2022-11-12T03:31:52.871Z,46.00
2022-11-12T03:34:45.377Z,46.00
2022-11-12T03:37:37.686Z,46.00
2022-11-12T03:40:30.471Z,46.00
2022-11-12T03:43:22.899Z,45.90
2022-11-12T03:46:15.178Z,46.00
2022-11-12T03:49:09.098Z,46.00
2022-11-12T03:52:01.781Z,45.90
2022-11-12T03:54:54.283Z,45.90
2022-11-12T03:57:48.826Z,46.00
2022-11-12T04:00:41.343Z,46.00
2022-11-12T04:03:33.645Z,45.90
2022-11-12T04:06:45.012Z,45.90
2022-11-12T04:09:37.461Z,45.90
2022-11-12T04:12:47.232Z,45.90
2022-11-12T04:15:39.769Z,46.10
2022-11-12T04:18:49.525Z,46.00
2022-11-12T04:21:57.754Z,46.00
2022-11-12T04:25:07.994Z,46.00
2022-11-12T04:28:00.589Z,46.00
2022-11-12T04:30:51.814Z,46.00
2022-11-12T04:33:44.434Z,46.00
2022-11-12T04:36:36.685Z,45.80
2022-11-12T04:39:30.423Z,46.00
2022-11-12T04:42:40.186Z,45.80
2022-11-12T04:45:32.676Z,45.80
2022-11-12T04:48:25.931Z,45.80
2022-11-12T04:51:36.050Z,45.70
2022-11-12T04:54:29.893Z,45.80
2022-11-12T04:57:22.843Z,46.40
2022-11-12T05:00:15.853Z,45.90
2022-11-12T05:03:07.997Z,45.80
2022-11-12T05:06:03.311Z,45.80
2022-11-12T05:08:55.902Z,45.80
2022-11-12T05:11:49.809Z,45.80
2022-11-12T05:14:42.177Z,45.80
2022-11-12T05:17:34.700Z,45.80
2022-11-12T05:20:27.139Z,45.70
2022-11-12T05:23:19.539Z,45.80
2022-11-12T05:26:11.773Z,45.80
2022-11-12T05:29:08.682Z,45.70
2022-11-12T05:32:01.786Z,45.70
2022-11-12T05:34:54.523Z,45.70
2022-11-12T05:37:46.908Z,45.70
2022-11-12T05:40:39.484Z,45.60
2022-11-12T05:43:32.231Z,45.70
2022-11-12T05:46:26.135Z,45.70
2022-11-12T05:49:19.255Z,45.80
2022-11-12T05:52:11.480Z,45.70
2022-11-12T05:55:03.735Z,45.80
2022-11-12T05:57:56.029Z,45.70
2022-11-12T06:00:49.742Z,45.70
2022-11-12T06:03:43.771Z,45.70
2022-11-12T06:06:36.595Z,45.70
2022-11-12T06:09:28.978Z,45.70
2022-11-12T06:12:21.401Z,45.70
2022-11-12T06:15:13.987Z,45.70
2022-11-12T06:18:06.511Z,45.70
2022-11-12T06:21:23.716Z,45.60
2022-11-12T06:24:16.330Z,45.80
2022-11-12T06:27:08.563Z,45.60
2022-11-12T06:30:01.304Z,45.50
2022-11-12T06:33:16.999Z,45.50
2022-11-12T06:36:13.344Z,45.60
2022-11-12T06:39:06.419Z,45.60
2022-11-12T06:41:58.816Z,45.70
2022-11-12T06:44:51.239Z,45.60
2022-11-12T06:47:43.803Z,45.60
2022-11-12T06:50:36.606Z,45.60
2022-11-12T06:53:30.474Z,45.60
2022-11-12T06:56:23.073Z,45.50
2022-11-12T06:59:15.459Z,45.60
2022-11-12T07:02:07.960Z,45.60
2022-11-12T07:05:00.396Z,45.60
2022-11-12T07:07:52.786Z,45.50
2022-11-12T07:10:46.894Z,45.50
2022-11-12T07:13:39.843Z,45.50
2022-11-12T07:16:32.497Z,45.50
2022-11-12T07:19:24.859Z,45.50
2022-11-12T07:22:17.342Z,46.00
2022-11-12T07:25:10.316Z,46.10
2022-11-12T07:28:04.330Z,45.50
2022-11-12T07:30:58.375Z,45.50
2022-11-12T07:33:51.133Z,45.50
2022-11-12T07:36:43.760Z,45.50
2022-11-12T07:39:35.955Z,45.50
2022-11-12T07:42:28.616Z,45.50
2022-11-12T07:45:22.332Z,45.50
2022-11-12T07:48:14.664Z,45.50
2022-11-12T07:51:09.069Z,45.40
2022-11-12T07:54:01.217Z,45.50
2022-11-12T07:56:53.766Z,46.30
2022-11-12T07:59:46.643Z,45.60
2022-11-12T08:02:40.246Z,45.50
2022-11-12T08:05:32.695Z,45.50
2022-11-12T08:08:25.623Z,45.50
2022-11-12T08:11:18.164Z,45.50
2022-11-12T08:14:10.511Z,45.40
2022-11-12T08:17:02.800Z,45.50
2022-11-12T08:19:56.541Z,45.40
2022-11-12T08:22:49.671Z,45.40
2022-11-12T08:25:42.342Z,45.40
2022-11-12T08:28:37.014Z,45.40
2022-11-12T08:31:29.425Z,45.40
2022-11-12T08:34:22.938Z,45.50
2022-11-12T08:37:17.009Z,45.40
2022-11-12T08:40:10.461Z,45.30
2022-11-12T08:43:04.183Z,45.40
2022-11-12T08:45:59.030Z,45.30
2022-11-12T08:48:51.820Z,45.30
2022-11-12T08:51:44.145Z,45.30
2022-11-12T08:54:38.035Z,45.90
2022-11-12T08:57:30.734Z,45.30
2022-11-12T09:00:23.525Z,45.30
2022-11-12T09:03:18.080Z,45.30
2022-11-12T09:06:10.561Z,45.30
2022-11-12T09:09:03.043Z,45.30
2022-11-12T09:11:57.023Z,45.40
2022-11-12T09:14:49.457Z,45.30
2022-11-12T09:17:41.881Z,45.30
2022-11-12T09:20:34.448Z,45.30
2022-11-12T09:23:27.104Z,45.40
2022-11-12T09:26:20.293Z,45.40
2022-11-12T09:29:14.137Z,45.40
2022-11-12T09:32:06.742Z,45.30
2022-11-12T09:34:59.461Z,45.30
2022-11-12T09:37:51.865Z,45.30
2022-11-12T09:41:09.638Z,45.30
2022-11-12T09:44:05.531Z,45.70
2022-11-12T09:47:04.286Z,45.30
2022-11-12T09:50:02.990Z,45.40
2022-11-12T09:53:03.956Z,45.30
2022-11-12T09:55:56.887Z,45.30
2022-11-12T09:58:49.546Z,45.30
2022-11-12T10:01:51.274Z,45.30
2022-11-12T10:05:17.559Z,45.30
2022-11-12T10:08:36.435Z,45.50
2022-11-12T10:12:09.805Z,45.80
2022-11-12T10:15:56.122Z,45.60
2022-11-12T10:19:04.072Z,45.60
2022-11-12T10:22:06.816Z,45.50
2022-11-12T10:25:01.116Z,45.40
2022-11-12T10:27:56.080Z,45.30
2022-11-12T10:30:48.622Z,46.00
2022-11-12T10:33:40.968Z,45.30
2022-11-12T10:36:37.188Z,45.20
2022-11-12T10:39:36.011Z,45.30
2022-11-12T10:42:28.359Z,45.40
2022-11-12T10:45:23.045Z,45.10
2022-11-12T10:48:29.118Z,45.10
2022-11-12T10:51:27.144Z,45.50
2022-11-12T10:54:30.270Z,45.30
2022-11-12T10:57:26.724Z,45.40
2022-11-12T11:00:21.717Z,45.20
2022-11-12T11:03:22.239Z,45.10
2022-11-12T11:06:23.664Z,45.30
2022-11-12T11:09:19.931Z,45.40
2022-11-12T11:12:27.055Z,45.20
2022-11-12T11:15:24.429Z,45.50
2022-11-12T11:18:16.932Z,45.20
2022-11-12T11:21:22.342Z,45.20
2022-11-12T11:24:27.029Z,45.40
2022-11-12T11:27:30.753Z,45.20
2022-11-12T11:30:24.206Z,45.40
2022-11-12T11:33:33.998Z,45.10
2022-11-12T11:36:33.003Z,45.60
2022-11-12T11:39:34.812Z,45.10
2022-11-12T11:43:09.470Z,45.10
2022-11-12T11:46:15.535Z,45.50
2022-11-12T11:49:24.928Z,45.50
2022-11-12T11:52:33.969Z,45.50
2022-11-12T11:55:36.135Z,45.40
2022-11-12T11:59:02.764Z,45.30
2022-11-12T12:02:12.623Z,45.70
2022-11-12T12:05:20.225Z,45.50
2022-11-12T12:08:20.934Z,45.20
2022-11-12T12:11:19.694Z,45.20
2022-11-12T12:14:30.032Z,45.30
2022-11-12T12:17:42.042Z,45.50
2022-11-12T12:20:42.414Z,45.40
2022-11-12T12:23:39.376Z,45.20
2022-11-12T12:26:37.405Z,45.10
2022-11-12T12:29:35.808Z,45.20
2022-11-12T12:32:30.847Z,45.30
2022-11-12T12:35:27.620Z,45.10
2022-11-12T12:38:26.544Z,45.20
2022-11-12T12:41:27.986Z,45.10
2022-11-12T12:44:20.111Z,45.30
2022-11-12T12:47:15.460Z,45.20
2022-11-12T12:50:13.112Z,45.30
2022-11-12T12:53:16.498Z,45.20
2022-11-12T12:56:29.405Z,45.20
2022-11-12T12:59:24.179Z,45.30
2022-11-12T13:02:22.524Z,45.30
2022-11-12T13:05:26.263Z,45.30
2022-11-12T13:08:24.520Z,45.60
2022-11-12T13:12:08.563Z,45.30
2022-11-12T13:15:42.248Z,45.70
2022-11-12T13:19:11.088Z,45.80
2022-11-12T13:22:49.562Z,45.80
2022-11-12T13:25:42.389Z,45.80
2022-11-12T13:28:35.119Z,45.30
2022-11-12T13:31:30.557Z,45.20
2022-11-12T13:34:25.965Z,45.20
2022-11-12T13:37:22.576Z,45.30
2022-11-12T13:40:20.983Z,45.20
2022-11-12T13:43:35.662Z,45.20
2022-11-12T13:46:32.856Z,45.50
2022-11-12T13:49:25.272Z,45.30
2022-11-12T13:52:21.011Z,45.30
2022-11-12T13:55:17.880Z,45.10
2022-11-12T13:58:21.178Z,45.10
2022-11-12T14:01:14.538Z,45.50
2022-11-12T14:04:09.025Z,45.10
2022-11-12T14:07:10.596Z,45.30
2022-11-12T14:10:09.586Z,45.10
2022-11-12T14:13:44.546Z,45.20
2022-11-12T14:16:50.959Z,45.50
2022-11-12T14:20:05.574Z,45.30
2022-11-12T14:22:58.205Z,45.60
2022-11-12T14:25:52.714Z,45.30
2022-11-12T14:28:46.862Z,45.20
2022-11-12T14:31:39.586Z,45.20
2022-11-12T14:34:33.720Z,45.10
2022-11-12T14:37:39.917Z,45.20
2022-11-12T14:40:38.817Z,46.00
2022-11-12T14:43:34.895Z,45.30
2022-11-12T14:46:31.278Z,45.30
2022-11-12T14:49:29.476Z,45.20
2022-11-12T14:52:24.655Z,45.30
2022-11-12T14:55:21.798Z,45.20
2022-11-12T14:58:15.865Z,45.20
2022-11-12T15:02:03.746Z,45.80
2022-11-12T15:04:43.503Z,45.70
2022-11-12T15:07:51.591Z,45.30
2022-11-12T15:10:46.096Z,45.30
2022-11-12T15:13:41.493Z,45.30
2022-11-12T15:16:35.722Z,45.30
2022-11-12T15:19:29.497Z,45.20
2022-11-12T15:22:24.664Z,45.10
2022-11-12T15:25:23.053Z,45.20
2022-11-12T15:28:22.330Z,45.20
2022-11-12T15:31:20.532Z,45.20
2022-11-12T15:34:48.270Z,45.30
2022-11-12T15:37:44.872Z,45.70
2022-11-12T15:40:45.051Z,45.20
2022-11-12T15:43:42.978Z,45.20
2022-11-12T15:46:35.572Z,45.20
2022-11-12T15:49:28.057Z,45.10
2022-11-12T15:52:20.995Z,45.20
2022-11-12T15:55:15.506Z,45.20
2022-11-12T15:58:12.924Z,45.10
2022-11-12T16:01:06.588Z,45.00
2022-11-12T16:04:09.844Z,45.10
2022-11-12T16:07:02.308Z,45.20
2022-11-12T16:09:54.776Z,45.10
2022-11-12T16:12:49.454Z,45.10
2022-11-12T16:15:42.270Z,45.10
2022-11-12T16:18:34.966Z,45.10
2022-11-12T16:21:27.633Z,45.10
2022-11-12T16:24:19.957Z,45.60
2022-11-12T16:27:14.609Z,45.10
2022-11-12T16:30:15.973Z,45.10
2022-11-12T16:33:08.416Z,45.30
2022-11-12T16:36:01.751Z,45.10
2022-11-12T16:38:54.324Z,45.10
2022-11-12T16:41:46.655Z,45.10
2022-11-12T16:44:39.000Z,45.10
2022-11-12T16:47:33.323Z,45.10
2022-11-12T16:50:28.688Z,45.00
2022-11-12T16:53:21.298Z,45.10
2022-11-12T16:56:15.631Z,45.10
2022-11-12T16:59:08.133Z,45.00
2022-11-12T17:02:00.621Z,45.10
2022-11-12T17:04:54.561Z,45.00
2022-11-12T17:07:47.252Z,44.90
2022-11-12T17:10:39.757Z,45.00
2022-11-12T17:13:32.286Z,45.10
2022-11-12T17:16:24.977Z,45.10
2022-11-12T17:19:17.564Z,45.10
2022-11-12T17:22:11.283Z,45.00
2022-11-12T17:25:03.978Z,45.10
2022-11-12T17:27:56.603Z,45.10
2022-11-12T17:30:48.979Z,45.10
2022-11-12T17:33:43.274Z,45.00
2022-11-12T17:36:40.717Z,44.90
2022-11-12T17:39:37.509Z,45.00
2022-11-12T17:42:29.890Z,45.00
2022-11-12T17:45:22.327Z,45.10
2022-11-12T17:48:14.433Z,44.90
2022-11-12T17:51:20.329Z,45.10
2022-11-12T17:54:12.970Z,44.90
2022-11-12T17:57:06.854Z,44.90
2022-11-12T17:59:59.424Z,45.10
2022-11-12T18:02:52.119Z,45.10
2022-11-12T18:05:44.475Z,44.90
2022-11-12T18:08:37.040Z,45.10
2022-11-12T18:11:31.527Z,45.00
2022-11-12T18:14:26.225Z,45.00
2022-11-12T18:17:18.721Z,45.00
2022-11-12T18:20:11.486Z,45.00
2022-11-12T18:23:03.549Z,44.90
2022-11-12T18:25:55.763Z,45.00
2022-11-12T18:28:52.846Z,44.90
2022-11-12T18:31:47.487Z,45.00
2022-11-12T18:34:44.667Z,45.00
2022-11-12T18:37:37.854Z,45.10
2022-11-12T18:40:30.693Z,45.00
2022-11-12T18:43:23.115Z,45.00
2022-11-12T18:46:15.718Z,45.00
2022-11-12T18:49:09.893Z,45.50
2022-11-12T18:52:02.600Z,45.10
2022-11-12T18:54:55.382Z,45.00
2022-11-12T18:57:47.730Z,45.10
2022-11-12T19:00:40.098Z,45.10
2022-11-12T19:03:32.687Z,45.10
2022-11-12T19:06:26.653Z,45.00
2022-11-12T19:09:19.553Z,45.00
2022-11-12T19:12:12.051Z,45.00
2022-11-12T19:15:04.910Z,45.00
2022-11-12T19:17:57.742Z,45.00
2022-11-12T19:20:50.452Z,45.00
2022-11-12T19:23:44.507Z,45.00
2022-11-12T19:26:37.085Z,45.00
2022-11-12T19:29:30.956Z,44.90
2022-11-12T19:32:23.800Z,45.00
2022-11-12T19:35:16.788Z,45.00
2022-11-12T19:38:09.373Z,45.00
2022-11-12T19:41:06.685Z,44.90
2022-11-12T19:43:59.321Z,45.10
2022-11-12T19:46:51.865Z,44.90
2022-11-12T19:49:44.510Z,45.00
2022-11-12T19:52:36.937Z,45.00
2022-11-12T19:55:33.472Z,45.00
2022-11-12T19:58:31.900Z,45.00
2022-11-12T20:01:24.319Z,45.00
2022-11-12T20:04:20.151Z,45.00
2022-11-12T20:07:16.928Z,45.10
2022-11-12T20:10:10.469Z,45.10
2022-11-12T20:13:03.571Z,45.10
2022-11-12T20:15:57.900Z,45.00
2022-11-12T20:18:53.297Z,45.10
2022-11-12T20:21:46.366Z,45.10
2022-11-12T20:24:39.273Z,45.10
2022-11-12T20:27:32.181Z,45.10
2022-11-12T20:30:25.208Z,45.10
2022-11-12T20:33:19.523Z,45.00
2022-11-12T20:36:13.940Z,45.10
2022-11-12T20:39:07.195Z,45.00
2022-11-12T20:42:01.185Z,45.00
2022-11-12T20:44:53.828Z,45.00
2022-11-12T20:47:46.411Z,45.00
2022-11-12T20:50:41.773Z,45.00
2022-11-12T20:53:44.022Z,45.00
2022-11-12T20:56:36.627Z,45.00
2022-11-12T20:59:28.826Z,45.10
2022-11-12T21:02:21.511Z,45.00
2022-11-12T21:05:13.766Z,45.10
2022-11-12T21:08:07.764Z,45.10
2022-11-12T21:11:01.943Z,45.00
2022-11-12T21:13:54.497Z,45.10
2022-11-12T21:16:47.065Z,45.10
2022-11-12T21:19:39.676Z,45.10
2022-11-12T21:22:33.915Z,45.00
2022-11-12T21:25:27.751Z,45.00
2022-11-12T21:28:20.310Z,45.00
2022-11-12T21:31:14.531Z,45.00
2022-11-12T21:34:07.594Z,45.00
2022-11-12T21:37:00.887Z,45.00
2022-11-12T21:39:53.769Z,45.00
2022-11-12T21:42:48.075Z,45.10
2022-11-12T21:45:45.431Z,45.10
2022-11-12T21:48:38.139Z,45.70
2022-11-12T21:51:32.629Z,45.10
2022-11-12T21:54:25.261Z,45.10
2022-11-12T21:57:18.984Z,45.10
2022-11-12T22:00:40.513Z,45.10
2022-11-12T22:03:26.949Z,45.20
2022-11-12T22:06:19.946Z,45.10
2022-11-12T22:09:12.457Z,45.10
2022-11-12T22:12:04.924Z,45.10
2022-11-12T22:14:57.376Z,45.10
2022-11-12T22:17:51.236Z,45.10
2022-11-12T22:20:43.910Z,45.00
2022-11-12T22:23:37.224Z,45.10
2022-11-12T22:26:30.860Z,45.10
2022-11-12T22:29:23.738Z,45.10
2022-11-12T22:32:16.625Z,45.20
2022-11-12T22:35:11.550Z,45.10
2022-11-12T22:38:04.191Z,45.20
2022-11-12T22:41:03.139Z,45.10
2022-11-12T22:43:57.426Z,45.30
2022-11-12T22:46:50.130Z,45.10
2022-11-12T22:49:42.822Z,45.20
2022-11-12T22:52:37.189Z,45.10
2022-11-12T22:55:29.692Z,45.20
2022-11-12T22:58:22.515Z,45.20
2022-11-12T23:01:21.621Z,45.70
2022-11-12T23:04:13.818Z,45.70
2022-11-12T23:07:06.300Z,45.10
2022-11-12T23:10:00.574Z,45.20
2022-11-12T23:12:52.667Z,45.10
2022-11-12T23:15:45.507Z,45.10
2022-11-12T23:18:37.982Z,45.70
2022-11-12T23:21:31.703Z,45.10
2022-11-12T23:24:24.007Z,45.10
2022-11-12T23:27:17.621Z,45.10
2022-11-12T23:30:11.179Z,45.10
2022-11-12T23:33:03.807Z,45.10
2022-11-12T23:35:56.234Z,45.20
2022-11-12T23:38:48.556Z,45.10
2022-11-12T23:41:41.045Z,45.10
2022-11-12T23:44:34.656Z,45.10
2022-11-12T23:47:26.701Z,45.10
2022-11-12T23:50:19.092Z,45.10
2022-11-12T23:53:11.665Z,45.10
2022-11-12T23:56:04.875Z,45.10
2022-11-12T23:58:57.159Z,45.20
